Time;durP1;ratioP1;P1;durP2;ratioP2;P2;SDS_P1;SDS_P2;PMS_P1;PMS_P2;Temp;Humidity;BMP_temperature;BMP_pressure;BME280_temperature;BME280_humidity;BME280_pressure;Samples;Min_cycle;Max_cycle;Signal;HPM_P1;HPM_P2
2021/01/18 00:00:11;;;;;;;56.55;19.00;;;;;;;-9.07;100.00;99632.86;4184110;84;44094;-74
2021/01/18 00:06:19;;;;;;;50.08;17.17;;;;;;;-9.35;100.00;99630.58;4194727;84;43828;-74
2021/01/18 00:12:22;;;;;;;42.85;13.78;;;;;;;-9.48;100.00;99618.73;4193318;82;44475;-74
2021/01/18 00:18:24;;;;;;;62.48;20.70;;;;;;;-9.48;100.00;99624.76;4190121;84;44451;-76
2021/01/18 00:24:26;;;;;;;62.05;19.62;;;;;;;-9.46;100.00;99630.74;4175521;84;44440;-77
2021/01/18 00:30:28;;;;;;;59.27;19.17;;;;;;;-9.47;100.00;99639.93;4188134;84;44130;-77
2021/01/18 00:36:31;;;;;;;56.75;18.17;;;;;;;-9.59;100.00;99634.50;4177965;83;44107;-77
2021/01/18 00:42:33;;;;;;;67.90;20.80;;;;;;;-9.49;100.00;99638.70;4176684;84;47601;-77
2021/01/18 00:48:39;;;;;;;68.90;23.25;;;;;;;-9.57;100.00;99646.14;4194646;84;43749;-77
2021/01/18 00:54:41;;;;;;;71.42;23.87;;;;;;;-9.44;100.00;99648.41;4172461;84;44486;-77
2021/01/18 01:00:45;;;;;;;72.42;22.80;;;;;;;-9.56;100.00;99653.02;4177395;84;28558;-78
2021/01/18 01:06:48;;;;;;;78.55;24.67;;;;;;;-9.21;100.00;99646.69;4188839;84;44175;-76
2021/01/18 01:13:00;;;;;;;84.97;27.45;;;;;;;-9.19;100.00;99644.38;4198783;84;42626;-75
2021/01/18 01:19:03;;;;;;;82.33;22.62;;;;;;;-9.29;100.00;99659.72;4191129;84;44497;-76
2021/01/18 01:25:11;;;;;;;81.97;26.17;;;;;;;-9.35;100.00;99654.84;4204376;84;43303;-74
2021/01/18 01:31:15;;;;;;;82.42;25.95;;;;;;;-9.42;100.00;99660.88;4172371;84;43221;-75
2021/01/18 01:37:18;;;;;;;72.00;21.37;;;;;;;-9.34;100.00;99646.10;4192296;84;43747;-74
2021/01/18 01:43:20;;;;;;;78.28;23.65;;;;;;;-9.25;100.00;99640.36;4172230;84;44166;-75
2021/01/18 01:49:22;;;;;;;75.28;23.98;;;;;;;-9.37;100.00;99650.19;4194634;83;44507;-75
2021/01/18 01:55:31;;;;;;;71.90;22.93;;;;;;;-9.23;100.00;99650.70;4179113;84;43773;-76
2021/01/18 02:01:35;;;;;;;67.58;20.77;;;;;;;-9.18;100.00;99660.38;4174526;84;43776;-75
2021/01/18 02:07:37;;;;;;;56.13;17.55;;;;;;;-9.21;100.00;99664.47;4202548;84;29030;-75
2021/01/18 02:13:53;;;;;;;72.62;21.75;;;;;;;-9.46;100.00;99665.89;4220522;83;44068;-76
2021/01/18 02:20:30;;;;;;;71.17;21.75;;;;;;;-9.25;100.00;99658.59;4263075;83;43775;-76
2021/01/18 02:26:52;;;;;;;71.20;22.82;;;;;;;-9.37;100.00;99658.01;4231613;82;44132;-76
2021/01/18 02:33:23;;;;;;;69.77;22.15;;;;;;;-9.30;100.00;99646.77;4237015;83;43745;-76
2021/01/18 02:39:52;;;;;;;70.42;21.02;;;;;;;-9.28;100.00;99643.16;4240861;83;43753;-77
2021/01/18 02:45:56;;;;;;;77.97;23.75;;;;;;;-9.24;100.00;99644.64;4244226;83;44005;-75
2021/01/18 02:52:10;;;;;;;65.00;21.23;;;;;;;-9.13;100.00;99642.73;4237228;83;44052;-77
2021/01/18 02:58:16;;;;;;;71.45;21.87;;;;;;;-9.17;100.00;99638.61;4254950;83;43991;-77
2021/01/18 03:04:24;;;;;;;79.15;23.85;;;;;;;-9.15;100.00;99635.92;4231093;83;44096;-76
2021/01/18 03:10:37;;;;;;;78.52;22.98;;;;;;;-9.14;100.00;99637.59;4241553;82;44094;-76
2021/01/18 03:16:43;;;;;;;68.22;19.30;;;;;;;-9.20;100.00;99646.61;4261273;82;44014;-76
2021/01/18 03:22:46;;;;;;;72.85;22.07;;;;;;;-9.23;100.00;99641.59;4277308;82;43758;-77
2021/01/18 03:28:48;;;;;;;84.92;24.95;;;;;;;-9.32;100.00;99631.25;4267555;82;44101;-77
2021/01/18 03:34:52;;;;;;;53.10;16.43;;;;;;;-9.57;100.00;99631.82;4274726;82;28554;-77
2021/01/18 03:40:54;;;;;;;62.15;20.35;;;;;;;-9.26;100.00;99632.17;4270421;82;44442;-77
2021/01/18 03:46:56;;;;;;;68.60;21.42;;;;;;;-9.49;100.00;99638.70;4253851;82;43725;-77
2021/01/18 03:52:58;;;;;;;60.00;19.87;;;;;;;-9.42;100.00;99637.92;4271814;82;44106;-77
2021/01/18 03:59:01;;;;;;;75.65;20.95;;;;;;;-9.54;100.00;99638.97;4276482;82;44058;-76
2021/01/18 04:05:05;;;;;;;61.70;20.75;;;;;;;-9.71;100.00;99634.72;4264665;82;44485;-76
2021/01/18 04:11:07;;;;;;;;;;;;;;;-9.64;100.00;99628.70;4277665;82;28668;-75
2021/01/18 04:17:09;;;;;;;64.00;18.02;;;;;;;-9.83;100.00;99641.92;4202601;84;44466;-76
2021/01/18 04:23:11;;;;;;;55.48;17.17;;;;;;;-9.91;100.00;99629.34;4202753;83;44103;-75
2021/01/18 04:29:13;;;;;;;60.28;18.57;;;;;;;-9.53;100.00;99627.66;4189797;84;44108;-76
2021/01/18 04:35:17;;;;;;;56.92;17.62;;;;;;;-9.62;100.00;99615.16;4173607;84;44111;-75
2021/01/18 04:41:19;;;;;;;47.55;16.52;;;;;;;-9.56;100.00;99610.89;4190342;84;43781;-75
2021/01/18 04:47:27;;;;;;;52.88;16.75;;;;;;;-9.59;100.00;99607.16;4181806;84;43743;-73
2021/01/18 04:53:31;;;;;;;61.08;18.90;;;;;;;-9.43;100.00;99611.47;4185456;83;44298;-78
2021/01/18 04:59:46;;;;;;;55.08;16.48;;;;;;;-9.43;100.00;99607.12;4177549;84;28553;-75
2021/01/18 05:06:14;;;;;;;54.75;18.60;;;;;;;-9.49;100.00;99610.06;4196320;84;44111;-74
2021/01/18 05:12:18;;;;;;;56.83;17.55;;;;;;;-9.50;100.00;99610.17;4159297;84;44110;-75
2021/01/18 05:18:24;;;;;;;49.30;17.00;;;;;;;-9.56;100.00;99612.67;4209195;83;43766;-74
2021/01/18 05:24:26;;;;;;;59.50;18.77;;;;;;;-9.39;100.00;99609.08;4206263;83;46970;-74
2021/01/18 05:30:32;;;;;;;49.15;16.80;;;;;;;-9.46;100.00;99612.52;4196001;84;43745;-74
2021/01/18 05:36:49;;;;;;;54.18;16.90;;;;;;;-9.44;100.00;99624.12;4199663;84;44094;-75
2021/01/18 05:42:52;;;;;;;53.85;18.07;;;;;;;-9.31;100.00;99629.02;4193363;84;44156;-74
2021/01/18 05:48:58;;;;;;;64.25;19.50;;;;;;;-9.38;100.00;99628.98;4169787;84;44483;-76
2021/01/18 05:55:22;;;;;;;61.88;19.52;;;;;;;-9.57;100.00;99633.94;4211801;84;44433;-76
2021/01/18 06:02:05;;;;;;;66.28;20.77;;;;;;;-9.61;100.00;99632.45;4189925;83;43291;-75
2021/01/18 06:08:14;;;;;;;66.50;20.15;;;;;;;-9.48;100.00;99639.56;4301762;82;47680;-72
2021/01/18 06:14:19;;;;;;;73.92;24.30;;;;;;;-9.41;100.00;99631.78;4320932;81;44499;-76
2021/01/18 06:20:25;;;;;;;60.52;18.80;;;;;;;-9.78;100.00;99633.86;4316317;82;44472;-76
2021/01/18 06:26:36;;;;;;;63.87;20.30;;;;;;;-9.63;100.00;99638.22;4307596;81;46540;-75
2021/01/18 06:32:38;;;;;;;58.08;17.45;;;;;;;-9.59;100.00;99629.74;4278833;82;44098;-76
2021/01/18 06:38:42;;;;;;;59.38;18.73;;;;;;;-9.72;100.00;99630.92;4283385;82;44133;-75
2021/01/18 06:44:44;;;;;;;58.78;18.95;;;;;;;-9.59;100.00;99629.30;4301680;81;28575;-76
2021/01/18 06:50:47;;;;;;;49.65;16.07;;;;;;;-9.74;100.00;99628.84;4317601;81;44075;-75
2021/01/18 06:57:11;;;;;;;54.05;19.60;;;;;;;-9.54;100.00;99627.73;4292001;81;44114;-75
2021/01/18 07:03:34;;;;;;;58.02;17.90;;;;;;;-9.68;100.00;99631.11;4294551;81;44101;-75
2021/01/18 07:09:37;;;;;;;66.00;20.05;;;;;;;-9.46;100.00;99637.25;4291986;81;43669;-75
2021/01/18 07:15:41;;;;;;;55.73;16.97;;;;;;;-9.27;100.00;99637.47;4299248;82;44112;-74
2021/01/18 07:22:01;;;;;;;56.45;18.25;;;;;;;-9.24;100.00;99645.13;4311538;82;44100;-75
2021/01/18 07:28:05;;;;;;;54.53;17.92;;;;;;;-9.54;100.00;99647.26;4333137;81;44171;-75
2021/01/18 07:34:17;;;;;;;39.90;13.00;;;;;;;-9.55;100.00;99651.61;4339654;81;28548;-77
2021/01/18 07:40:21;;;;;;;52.08;17.52;;;;;;;-9.75;100.00;99659.70;4314576;81;43723;-77
2021/01/18 07:46:31;;;;;;;53.50;17.50;;;;;;;-9.41;100.00;99665.15;4313919;82;34397;-76
2021/01/18 07:52:36;;;;;;;59.85;18.73;;;;;;;-9.49;100.00;99667.83;4313198;82;44091;-76
2021/01/18 07:58:41;;;;;;;48.35;16.95;;;;;;;-9.47;100.00;99671.17;4299648;81;46602;-76
2021/01/18 08:04:43;;;;;;;;;;;;;;;-9.49;100.00;99667.34;4317076;81;28561;-76
2021/01/18 08:10:58;;;;;;;52.23;16.75;;;;;;;-9.48;100.00;99662.99;4307223;81;43484;-77
2021/01/18 08:17:01;;;;;;;53.78;18.48;;;;;;;-9.59;100.00;99664.89;4293488;81;44097;-76
2021/01/18 08:23:09;;;;;;;48.35;17.10;;;;;;;-9.45;100.00;99664.11;4323146;81;43742;-76
2021/01/18 08:29:40;;;;;;;52.10;17.23;;;;;;;-9.47;100.00;99657.70;4316192;81;43267;-76
2021/01/18 08:35:46;;;;;;;57.40;18.67;;;;;;;-9.46;100.00;99668.95;4287388;81;44101;-76
2021/01/18 08:41:48;;;;;;;50.40;16.23;;;;;;;-9.56;100.00;99672.55;4320267;81;43778;-76
2021/01/18 08:48:01;;;;;;;47.50;17.00;;;;;;;-9.38;100.00;99670.66;4313910;81;43794;-75
2021/01/18 08:54:04;;;;;;;53.02;16.17;;;;;;;-9.39;100.00;99678.09;4314439;81;43293;-75
2021/01/18 09:00:10;;;;;;;;;;;;;;;-9.27;100.00;99681.74;4304116;81;28617;-78
2021/01/18 09:06:13;;;;;;;50.20;17.85;;;;;;;-9.22;100.00;99681.48;4294456;81;43887;-73
2021/01/18 09:12:17;;;;;;;55.28;18.12;;;;;;;-9.24;100.00;99678.51;4302375;82;44101;-73
2021/01/18 09:18:22;;;;;;;54.03;18.40;;;;;;;-8.99;100.00;99677.55;4307533;81;44133;-73
2021/01/18 09:24:24;;;;;;;57.30;19.15;;;;;;;-9.15;100.00;99683.67;4300456;82;44093;-72
2021/01/18 09:30:27;;;;;;;56.00;20.40;;;;;;;-9.00;100.00;99675.88;4306202;82;44078;-72
2021/01/18 09:36:29;;;;;;;48.52;18.80;;;;;;;-8.77;100.00;99669.31;4300844;82;44071;-72
2021/01/18 09:42:32;;;;;;;60.85;19.82;;;;;;;-8.79;100.00;99662.50;4241171;83;44515;-72
2021/01/18 09:48:34;;;;;;;60.55;19.00;;;;;;;-8.70;100.00;99651.53;4312846;81;44217;-72
2021/01/18 09:54:43;;;;;;;53.50;18.42;;;;;;;-8.71;100.00;99635.03;4311537;82;44147;-71
2021/01/18 10:00:49;;;;;;;60.12;21.93;;;;;;;-8.50;100.00;99639.05;4300832;82;44287;-73
2021/01/18 10:07:02;;;;;;;54.27;18.30;;;;;;;-8.54;100.00;99631.88;4214076;83;44166;-75
2021/01/18 10:13:08;;;;;;;59.42;19.07;;;;;;;-8.59;100.00;99615.66;4277388;82;44206;-75
2021/01/18 10:19:16;;;;;;;56.18;20.00;;;;;;;-8.36;100.00;99609.00;4253679;83;28618;-74
2021/01/18 10:25:18;;;;;;;58.17;17.85;;;;;;;-8.42;100.00;99615.92;4255571;83;44143;-75
2021/01/18 10:31:27;;;;;;;67.47;22.27;;;;;;;-8.48;100.00;99612.37;4141603;85;43774;-75
2021/01/18 10:37:30;;;;;;;58.50;20.50;;;;;;;-8.49;100.00;99606.31;4256569;83;44157;-72
2021/01/18 10:43:33;;;;;;;52.45;17.25;;;;;;;-8.15;100.00;99600.31;4218403;84;43716;-74
2021/01/18 10:49:35;;;;;;;58.05;18.52;;;;;;;-8.22;100.00;99603.41;4228849;84;44283;-76
2021/01/18 10:55:38;;;;;;;54.53;18.25;;;;;;;-8.07;100.00;99610.26;4221785;84;44154;-74
2021/01/18 11:02:07;;;;;;;45.52;14.98;;;;;;;-7.89;100.00;99598.28;4260458;83;28534;-77
2021/01/18 11:08:10;;;;;;;49.13;15.25;;;;;;;-7.79;100.00;99599.36;4134632;85;43793;-73
2021/01/18 11:14:12;;;;;;;52.00;16.82;;;;;;;-7.58;100.00;99602.81;4310478;81;43735;-73
2021/01/18 11:20:26;;;;;;;50.95;17.40;;;;;;;-7.75;100.00;99600.00;4288369;81;43752;-74
2021/01/18 11:26:28;;;;;;;44.58;15.63;;;;;;;-7.48;100.00;99588.67;4301193;81;44456;-74
2021/01/18 11:32:30;;;;;;;44.05;14.93;;;;;;;-7.32;100.00;99585.41;4319420;81;44459;-74
2021/01/18 11:38:33;;;;;;;38.70;14.35;;;;;;;-7.19;100.00;99584.59;4311617;81;44436;-77
2021/01/18 11:44:35;;;;;;;43.33;15.60;;;;;;;-7.09;100.00;99570.41;4290040;82;44426;-75
2021/01/18 11:50:37;;;;;;;45.00;15.80;;;;;;;-7.12;100.00;99570.62;4306656;82;43701;-75
2021/01/18 11:56:39;;;;;;;44.73;16.27;;;;;;;-6.94;100.00;99562.84;4270884;81;43227;-76
2021/01/18 12:02:41;;;;;;;44.67;15.43;;;;;;;-6.93;100.00;99555.81;4288877;81;44464;-72
2021/01/18 12:08:44;;;;;;;46.73;16.70;;;;;;;-6.90;100.00;99548.60;4278946;83;43723;-72
2021/01/18 12:14:46;;;;;;;44.15;15.93;;;;;;;-6.91;100.00;99541.70;4219805;84;44473;-74
2021/01/18 12:20:49;;;;;;;41.05;14.95;;;;;;;-6.75;100.00;99545.88;4326208;81;44447;-74
2021/01/18 12:26:55;;;;;;;38.70;14.00;;;;;;;-6.82;100.00;99537.64;4310429;82;44468;-73
2021/01/18 12:32:57;;;;;;;39.48;15.38;;;;;;;-6.83;100.00;99539.86;4303240;82;44494;-74
2021/01/18 12:39:01;;;;;;;44.77;15.97;;;;;;;-6.86;100.00;99542.70;4297371;81;28662;-74
2021/01/18 12:45:05;;;;;;;37.95;13.85;;;;;;;-6.79;100.00;99530.02;4327481;82;44491;-74
2021/01/18 12:51:08;;;;;;;42.53;16.30;;;;;;;-6.82;100.00;99531.09;4286407;81;28616;-73
2021/01/18 12:57:10;;;;;;;41.80;13.28;;;;;;;-6.77;100.00;99525.06;4313680;81;44476;-73
2021/01/18 13:03:12;;;;;;;41.45;13.48;;;;;;;-6.96;100.00;99536.43;4285676;83;44472;-77
2021/01/18 13:09:20;;;;;;;40.05;15.08;;;;;;;-6.76;100.00;99521.50;4313067;81;44460;-75
2021/01/18 13:15:22;;;;;;;39.38;15.15;;;;;;;-6.69;100.00;99522.38;4266809;82;44468;-73
2021/01/18 13:21:24;;;;;;;57.85;21.27;;;;;;;-6.51;100.00;99520.23;4291109;82;44165;-72
2021/01/18 13:27:30;;;;;;;54.90;19.82;;;;;;;-6.54;100.00;99515.23;4313935;82;44162;-71
2021/01/18 13:33:31;;;;;;;;;;;;;;;-6.54;100.00;99512.62;4308308;82;28917;-72
2021/01/18 13:39:34;;;;;;;59.85;20.05;;;;;;;-6.53;100.00;99512.98;4300149;82;44326;-72
2021/01/18 13:45:37;;;;;;;54.27;20.62;;;;;;;-6.65;100.00;99508.98;4306502;82;44180;-72
2021/01/18 13:51:40;;;;;;;55.88;19.95;;;;;;;-6.81;100.00;99505.31;4275427;82;44149;-73
2021/01/18 13:57:42;;;;;;;59.50;21.10;;;;;;;-6.65;100.00;99514.67;4304596;82;44165;-72
2021/01/18 14:03:52;;;;;;;62.08;22.10;;;;;;;-6.84;100.00;99513.34;4305055;82;44485;-73
2021/01/18 14:09:54;;;;;;;64.03;21.95;;;;;;;-6.89;100.00;99514.16;4240378;83;44454;-73
2021/01/18 14:15:56;;;;;;;61.00;19.52;;;;;;;-6.87;100.00;99511.80;4270248;83;44441;-73
2021/01/18 14:21:58;;;;;;;59.03;20.72;;;;;;;-7.18;100.00;99503.94;4271692;82;44082;-73
2021/01/18 14:28:01;;;;;;;68.02;21.95;;;;;;;-7.10;100.00;99502.94;4275793;82;43762;-73
2021/01/18 14:34:04;;;;;;;70.70;23.10;;;;;;;-7.42;100.00;99500.76;4142181;85;44469;-72
2021/01/18 14:40:08;;;;;;;80.67;26.68;;;;;;;-7.32;100.00;99498.34;4149509;85;43636;-73
2021/01/18 14:46:12;;;;;;;79.33;27.00;;;;;;;-7.52;100.00;99495.30;4256769;83;28539;-73
2021/01/18 14:52:14;;;;;;;78.02;24.30;;;;;;;-7.74;100.00;99490.22;4268366;83;44140;-74
2021/01/18 14:58:16;;;;;;;69.70;24.75;;;;;;;-7.87;100.00;99487.58;4292333;83;44092;-73
2021/01/18 15:04:18;;;;;;;73.45;25.55;;;;;;;-8.05;100.00;99499.25;4285030;83;44535;-74
2021/01/18 15:10:21;;;;;;;75.78;25.90;;;;;;;-8.18;100.00;99501.81;4180938;83;43576;-74
2021/01/18 15:16:25;;;;;;;73.52;23.92;;;;;;;-8.31;100.00;99493.94;4323409;82;44487;-74
2021/01/18 15:22:28;;;;;;;76.28;26.70;;;;;;;-8.34;100.00;99504.09;4306198;81;28677;-73
2021/01/18 15:28:30;;;;;;;80.32;25.92;;;;;;;-8.47;100.00;99504.06;4314541;81;43400;-76
2021/01/18 15:34:33;;;;;;;74.27;26.30;;;;;;;-8.62;100.00;99504.59;4292069;81;43801;-75
2021/01/18 15:40:35;;;;;;;77.58;25.40;;;;;;;-8.63;100.00;99518.56;4311938;81;43558;-74
2021/01/18 15:46:37;;;;;;;74.12;24.87;;;;;;;-8.77;100.00;99515.52;4302211;81;44441;-76
2021/01/18 15:52:40;;;;;;;76.33;26.12;;;;;;;-9.01;100.00;99520.46;4304090;81;43620;-73
2021/01/18 15:58:42;;;;;;;76.95;24.75;;;;;;;-9.20;100.00;99512.45;4316657;81;44533;-74
2021/01/18 16:04:44;;;;;;;72.45;25.62;;;;;;;-9.15;100.00;99519.55;4323768;81;44433;-73
2021/01/18 16:10:46;;;;;;;76.07;26.12;;;;;;;-9.26;100.00;99518.05;4251095;82;43558;-73
2021/01/18 16:16:49;;;;;;;86.97;27.42;;;;;;;-9.40;100.00;99517.57;4259640;83;43459;-73
2021/01/18 16:22:52;;;;;;;78.67;26.62;;;;;;;-9.24;100.00;99501.86;4272835;83;43640;-74
2021/01/18 16:28:54;;;;;;;80.62;25.62;;;;;;;-9.35;100.00;99502.49;4279763;83;44081;-73
2021/01/18 16:35:00;;;;;;;81.32;26.65;;;;;;;-9.46;100.00;99503.15;4143274;85;43675;-74
2021/01/18 16:41:03;;;;;;;86.80;27.60;;;;;;;-9.49;100.00;99488.99;4259007;83;28942;-74
2021/01/18 16:47:06;;;;;;;80.97;28.98;;;;;;;-9.70;100.00;99492.42;4266614;83;28548;-74
2021/01/18 16:53:09;;;;;;;90.40;28.62;;;;;;;-9.62;100.00;99491.51;4293870;83;45235;-75
2021/01/18 16:59:11;;;;;;;84.75;28.67;;;;;;;-9.36;100.00;99483.89;4302746;82;42966;-77
2021/01/18 17:05:14;;;;;;;83.00;29.02;;;;;;;-9.46;100.00;99487.98;4205741;84;42969;-75
2021/01/18 17:11:16;;;;;;;85.60;29.98;;;;;;;-9.26;100.00;99481.59;4275847;83;43293;-74
2021/01/18 17:17:19;;;;;;;87.30;29.18;;;;;;;-9.35;100.00;99488.17;4244602;82;43374;-72
2021/01/18 17:23:21;;;;;;;95.72;31.40;;;;;;;-9.17;100.00;99488.81;4311783;81;44132;-70
2021/01/18 17:29:23;;;;;;;94.10;32.40;;;;;;;-8.99;100.00;99496.44;4308042;82;44093;-72
2021/01/18 17:35:25;;;;;;;101.47;31.55;;;;;;;-8.96;100.00;99489.73;4310011;81;44168;-72
2021/01/18 17:41:29;;;;;;;95.07;30.85;;;;;;;-8.86;100.00;99488.71;4325407;81;44136;-72
2021/01/18 17:47:31;;;;;;;94.40;34.40;;;;;;;-8.82;100.00;99476.70;4329885;81;28619;-71
2021/01/18 17:53:37;;;;;;;106.90;34.27;;;;;;;-8.84;100.00;99484.23;4322610;81;43242;-73
2021/01/18 17:59:39;;;;;;;98.92;34.70;;;;;;;-8.82;100.00;99487.58;4325249;81;44192;-73
2021/01/18 18:05:47;;;;;;;103.65;34.73;;;;;;;-8.90;100.00;99493.72;4304803;81;43210;-73
2021/01/18 18:11:50;;;;;;;106.80;34.43;;;;;;;-8.75;100.00;99482.36;4301790;81;43313;-72
2021/01/18 18:17:53;;;;;;;106.80;35.28;;;;;;;-8.67;100.00;99486.27;4247189;82;43448;-73
2021/01/18 18:23:55;;;;;;;102.42;34.70;;;;;;;-8.62;100.00;99478.52;4321394;81;44330;-72
2021/01/18 18:29:58;;;;;;;106.55;36.25;;;;;;;-8.54;100.00;99474.11;4312444;81;43569;-71
2021/01/18 18:36:09;;;;;;;117.33;37.25;;;;;;;-8.45;100.00;99464.82;4310083;81;44629;-72
2021/01/18 18:42:11;;;;;;;113.37;37.63;;;;;;;-8.48;100.00;99467.64;4316869;81;44642;-75
2021/01/18 18:48:14;;;;;;;105.30;35.92;;;;;;;-8.33;100.00;99467.13;4305054;81;43612;-72
2021/01/18 18:54:19;;;;;;;115.47;36.65;;;;;;;-8.38;100.00;99464.80;4317635;81;44600;-72
2021/01/18 19:00:21;;;;;;;112.90;38.78;;;;;;;-8.26;100.00;99467.09;4252075;82;28613;-74
2021/01/18 19:06:23;;;;;;;101.20;34.67;;;;;;;-8.14;100.00;99474.13;4309962;81;44299;-72
2021/01/18 19:12:26;;;;;;;106.12;36.88;;;;;;;-7.83;100.00;99464.72;4308519;82;43593;-71
2021/01/18 19:18:28;;;;;;;96.95;34.40;;;;;;;-7.92;100.00;99466.63;4289790;82;44086;-72
2021/01/18 19:24:30;;;;;;;103.80;35.58;;;;;;;-7.96;100.00;99470.40;4313581;82;43695;-73
2021/01/18 19:30:32;;;;;;;101.58;36.13;;;;;;;-7.99;100.00;99474.89;4312387;82;44431;-69
2021/01/18 19:36:37;;;;;;;114.60;37.17;;;;;;;-7.93;100.00;99467.58;4309884;82;44649;-75
2021/01/18 19:42:40;;;;;;;112.03;36.05;;;;;;;-7.60;100.00;99468.41;4265216;82;28627;-72
2021/01/18 19:48:42;;;;;;;107.05;37.80;;;;;;;-7.65;100.00;99465.73;4240050;82;43961;-71
2021/01/18 19:54:45;;;;;;;107.80;34.90;;;;;;;-7.33;100.00;99456.17;4230530;82;43279;-72
2021/01/18 20:00:47;;;;;;;102.40;35.73;;;;;;;-7.34;100.00;99458.42;4232457;82;43738;-73
2021/01/18 20:06:50;;;;;;;104.27;35.78;;;;;;;-7.56;100.00;99454.19;4245722;82;43601;-74
2021/01/18 20:12:52;;;;;;;96.12;33.23;;;;;;;-7.39;100.00;99458.73;4291886;81;44130;-74
2021/01/18 20:18:57;;;;;;;99.50;33.80;;;;;;;-7.15;100.00;99458.83;4285464;81;44180;-74
2021/01/18 20:25:01;;;;;;;101.92;34.60;;;;;;;-7.21;100.00;99454.50;4293045;81;44313;-74
2021/01/18 20:31:03;;;;;;;95.28;33.95;;;;;;;-7.29;100.00;99447.17;4295629;81;44094;-74
2021/01/18 20:37:06;;;;;;;106.27;36.77;;;;;;;-6.93;100.00;99446.02;4294220;81;43642;-78
2021/01/18 20:43:08;;;;;;;106.67;37.48;;;;;;;-7.24;100.00;99450.77;4285761;81;43609;-74
2021/01/18 20:49:11;;;;;;;117.75;39.38;;;;;;;-6.71;100.00;99445.33;4279792;81;44710;-77
2021/01/18 20:55:14;;;;;;;121.50;40.85;;;;;;;-6.72;100.00;99443.20;4199006;83;43910;-75
2021/01/18 21:01:17;;;;;;;121.82;41.18;;;;;;;-6.91;100.00;99435.81;4258394;83;43964;-74
2021/01/18 21:07:23;;;;;;;122.70;39.67;;;;;;;-6.81;100.00;99431.23;4275455;83;44197;-74
2021/01/18 21:13:27;;;;;;;116.73;41.05;;;;;;;-6.91;100.00;99427.97;4262596;83;44662;-75
2021/01/18 21:19:29;;;;;;;118.08;39.60;;;;;;;-6.70;100.00;99430.48;4258357;83;44683;-75
2021/01/18 21:25:31;;;;;;;120.60;40.45;;;;;;;-6.86;100.00;99429.80;4267904;83;44621;-75
2021/01/18 21:31:38;;;;;;;121.50;42.13;;;;;;;-6.79;100.00;99414.50;4142780;84;44172;-76
2021/01/18 21:37:42;;;;;;;121.70;41.28;;;;;;;-6.67;100.00;99406.72;4138427;84;43958;-76
2021/01/18 21:43:44;;;;;;;132.80;43.20;;;;;;;-6.89;100.00;99408.27;4143477;84;44312;-77
2021/01/18 21:49:46;;;;;;;123.10;41.70;;;;;;;-6.68;100.00;99405.87;4144334;84;44294;-75
2021/01/18 21:55:48;;;;;;;132.32;42.33;;;;;;;-6.58;100.00;99404.25;4267295;83;44264;-75
2021/01/18 22:01:50;;;;;;;128.87;43.50;;;;;;;-6.63;100.00;99402.46;4217959;83;44308;-76
2021/01/18 22:07:52;;;;;;;116.22;40.90;;;;;;;-6.50;100.00;99389.33;4253803;83;44679;-74
2021/01/18 22:13:54;;;;;;;112.17;40.03;;;;;;;-6.56;100.00;99383.22;4224501;83;44611;-74
2021/01/18 22:19:57;;;;;;;138.60;45.45;;;;;;;-6.57;100.00;99382.86;4222999;84;44613;-74
2021/01/18 22:25:59;;;;;;;122.87;45.03;;;;;;;-6.64;100.00;99381.63;4214173;83;43949;-74
2021/01/18 22:32:02;;;;;;;119.30;42.33;;;;;;;-6.61;100.00;99373.55;4222144;83;43976;-74
2021/01/18 22:38:06;;;;;;;115.77;40.92;;;;;;;-6.35;100.00;99361.66;4219793;83;44648;-74
2021/01/18 22:44:08;;;;;;;130.70;43.58;;;;;;;-6.49;100.00;99356.98;4223139;83;44319;-73
2021/01/18 22:50:11;;;;;;;120.00;40.38;;;;;;;-6.55;100.00;99353.50;4225701;83;44635;-73
2021/01/18 22:56:21;;;;;;;125.65;42.85;;;;;;;-6.35;100.00;99348.57;4222516;83;44504;-74
2021/01/18 23:02:23;;;;;;;122.90;40.92;;;;;;;-6.28;100.00;99331.47;4221765;84;43891;-74
2021/01/18 23:08:25;;;;;;;115.10;42.00;;;;;;;-6.21;100.00;99327.91;4224654;83;44695;-73
2021/01/18 23:14:30;;;;;;;131.57;44.15;;;;;;;-6.17;100.00;99332.80;4217507;84;44437;-74
2021/01/18 23:20:33;;;;;;;135.63;48.37;;;;;;;-6.16;100.00;99333.16;4212975;84;28551;-75
2021/01/18 23:26:35;;;;;;;137.82;48.08;;;;;;;-5.98;100.00;99328.75;4225568;83;44430;-75
2021/01/18 23:32:38;;;;;;;149.07;48.60;;;;;;;-6.00;100.00;99316.23;4219685;83;44643;-75
2021/01/18 23:38:40;;;;;;;144.40;48.50;;;;;;;-6.16;100.00;99313.52;4210125;84;43937;-76
2021/01/18 23:44:42;;;;;;;148.22;50.67;;;;;;;-6.40;100.00;99295.73;4210688;83;44253;-75
2021/01/18 23:50:44;;;;;;;148.82;49.13;;;;;;;-6.22;100.00;99290.42;4277998;82;44970;-75
2021/01/18 23:56:46;;;;;;;154.63;51.02;;;;;;;-6.30;100.00;99283.16;4264067;82;43930;-75
